Polfoss — V2PN7 — position and weather

sailwx.info

Track history (hours):
 
Tides and Currents Weather Stations Pressure Air Temp Water Temp Dewpoint Dewpoint Depression Visibility Wind Speed Wind Dir Waves Ship Positions

Polfoss

Last reported at 2017-Mar-26 17:29 UTC. Time now 2017-Mar-26 20:56 UTC.
Position N 69°03' E 033°04'.

Length 82 m; draft 5.2 m.

Type: Cargo ship. MMSI: 305081000.

Date/timePositionNaut miles runAvg speedWind from/ knotsBaromVisibWave heightAir tempDewpointWater temp
2017-Mar-26 17:29N 69°03' E 033°04'5 5.5
2017-Mar-26 16:32N 68°58' E 033°03'0 0.0
2017-Mar-26 15:31N 68°58' E 033°03'0 0.0
2017-Mar-26 14:31N 68°58' E 033°03'0 0.0
2017-Mar-26 13:33N 68°58' E 033°03'0 0.0
2017-Mar-26 12:32N 68°58' E 033°03'0 0.0
2017-Mar-26 11:33N 68°58' E 033°03'1 1.3
2017-Mar-26 10:33N 68°57' E 033°02'0 0.0
2017-Mar-26 09:33N 68°57' E 033°02'0 0.0
2017-Mar-26 08:32N 68°57' E 033°02'0 0.0
2017-Mar-26 07:31N 68°57' E 033°02'0 0.0
2017-Mar-26 06:31N 68°57' E 033°02'0 0.0
2017-Mar-26 05:33N 68°57' E 033°02'0 0.0
2017-Mar-26 04:33N 68°57' E 033°02'0 0.0
2017-Mar-26 03:32N 68°57' E 033°02'0 0.0
2017-Mar-26 02:31N 68°57' E 033°02'0 0.0
2017-Mar-26 01:31N 68°57' E 033°02'0 0.0
2017-Mar-26 00:33N 68°57' E 033°02'0 0.0
2017-Mar-25 23:33N 68°57' E 033°02'0 0.0
2017-Mar-25 22:32N 68°57' E 033°02'0 0.0
2017-Mar-25 21:31N 68°57' E 033°02'0 0.0
2017-Mar-25 20:31N 68°57' E 033°02'0 0.0
2017-Mar-25 19:33N 68°57' E 033°02'0 0.0
2017-Mar-25 18:33N 68°57' E 033°02'0 0.0
2017-Mar-25 17:32N 68°57' E 033°02'0 0.0
2017-Mar-25 16:31N 68°57' E 033°02'0 0.4
2017-Mar-25 15:31N 68°56' E 033°02'0 0.0
2017-Mar-25 14:33N 68°56' E 033°02'0 0.0
2017-Mar-25 13:33N 68°56' E 033°02'0 0.0
2017-Mar-25 12:32N 68°56' E 033°02'0 0.0
2017-Mar-25 11:31N 68°56' E 033°02'0 0.0
2017-Mar-25 10:31N 68°56' E 033°02'0 0.0
2017-Mar-25 09:33N 68°56' E 033°02'0 0.0
2017-Mar-25 08:33N 68°56' E 033°02'0 0.0
2017-Mar-25 07:32N 68°56' E 033°02'0 0.0
2017-Mar-25 06:31N 68°56' E 033°02'0 0.0
2017-Mar-25 05:31N 68°56' E 033°02'1 0.8
2017-Mar-25 04:33N 68°57' E 033°01'7 6.5
2017-Mar-25 03:33N 69°04' E 033°05'8111.6
2017-Mar-24 20:33N 70°20' E 031°46'1514.9
2017-Mar-24 19:33N 70°29' E 031°09'1414.2
2017-Mar-24 18:33N 70°37' E 030°35'1313.3
2017-Mar-24 17:33N 70°43' E 029°60'8 7.5
2017-Mar-24 16:33N 70°38' E 029°43'0 0.0
2017-Mar-24 15:33N 70°38' E 029°43'0 0.0
2017-Mar-24 14:33N 70°38' E 029°43'0 0.0
2017-Mar-24 13:33N 70°38' E 029°43'0 0.0
2017-Mar-24 12:32N 70°38' E 029°43'0 0.0
2017-Mar-24 11:33N 70°38' E 029°43'4 3.6
2017-Mar-24 10:33N 70°41' E 029°50'1414.0
2017-Mar-24 09:33N 70°51' E 029°23'1514.6
2017-Mar-24 08:33N 70°60' E 028°46'1414.6
2017-Mar-24 07:33N 71°08' E 028°09'1414.1
2017-Mar-24 06:33N 71°08' E 027°25'1413.9
2017-Mar-24 05:33N 71°05' E 026°43'1313.4
2017-Mar-24 04:34N 70°59' E 026°07'1312.8
2017-Mar-24 03:33N 70°57' E 025°28'1413.8
2017-Mar-24 02:33N 71°01' E 024°46'1211.7
2017-Mar-24 01:33N 70°56' E 024°13'1413.6
2017-Mar-24 00:33N 70°50' E 023°36'1110.7
2017-Mar-23 23:32N 70°39' E 023°32'3 2.7
2017-Mar-23 22:33N 70°38' E 023°39'2 1.9
2017-Mar-23 21:33N 70°38' E 023°34'1414.4
2017-Mar-23 20:33N 70°31' E 022°56'1514.8
2017-Mar-23 19:33N 70°25' E 022°15'1313.6
2017-Mar-23 18:33N 70°16' E 021°45'9 9.4
2017-Mar-23 17:33N 70°16' E 021°17'1414.2
2017-Mar-23 16:33N 70°04' E 020°54'2115.3
2017-Mar-23 15:11N 69°55' E 019°58'915.2
2017-Mar-23 14:33N 69°49' E 019°36'1414.1
2017-Mar-23 13:33N 69°42' E 019°02'2 2.5
2017-Mar-23 12:33N 69°40' E 018°58'2 1.9
2017-Mar-23 11:33N 69°38' E 018°57'0 0.0
2017-Mar-23 10:33N 69°38' E 018°57'0 0.0
2017-Mar-23 09:33N 69°38' E 018°57'0 0.0
2017-Mar-23 08:33N 69°38' E 018°57'5 4.6
2017-Mar-23 07:33N 69°34' E 018°48'1615.6
2017-Mar-23 06:33N 69°28' E 018°07'1414.3
2017-Mar-23 05:33N 69°14' E 017°58'0 0.4
2017-Mar-23 04:33N 69°14' E 017°58'3 2.7
2017-Mar-23 03:33N 69°16' E 017°58'1111.1
2017-Mar-23 02:33N 69°27' E 018°07'1414.1
2017-Mar-23 01:33N 69°39' E 017°43'9 8.9
2017-Mar-23 00:33N 69°31' E 017°29'1 0.7
2017-Mar-22 23:33N 69°31' E 017°31'1313.3
2017-Mar-22 22:33N 69°30' E 016°53'1514.5
2017-Mar-22 21:33N 69°18' E 016°29'1514.8
2017-Mar-22 20:33N 69°05' E 016°08'1313.4
2017-Mar-22 19:33N 68°58' E 015°37'1514.9
2017-Mar-22 18:33N 68°43' E 015°25'1 1.3
2017-Mar-22 17:33N 68°42' E 015°25'0 0.0
2017-Mar-22 16:33N 68°42' E 015°25'0 0.0
2017-Mar-22 15:32N 68°42' E 015°25'0 0.0
2017-Mar-22 14:33N 68°42' E 015°25'1 0.7
2017-Mar-22 13:32N 68°41' E 015°26'1414.1
2017-Mar-22 12:33N 68°31' E 015°01'1514.6
2017-Mar-22 11:33N 68°25' E 014°25'1514.6
2017-Mar-22 10:33N 68°11' E 014°10'1414.0
2017-Mar-22 09:33N 68°04' E 013°37'4 3.8
2017-Mar-22 08:33N 68°08' E 013°34'0 0.0
2017-Mar-22 07:33N 68°08' E 013°34'0 0.0
2017-Mar-22 06:33N 68°08' E 013°34'0 0.0
2017-Mar-22 05:32N 68°08' E 013°34'0 0.0
2017-Mar-22 04:33N 68°08' E 013°34'2 2.3
2017-Mar-22 03:33N 68°05' E 013°36'1312.8
2017-Mar-22 02:33N 67°54' E 013°49'1414.3
2017-Mar-22 01:33N 67°41' E 014°06'1515.2
2017-Mar-22 00:33N 67°28' E 014°25'1010.4
2017-Mar-21 23:34N 67°17' E 014°24'0 0.0
2017-Mar-21 22:34N 67°17' E 014°24'0 0.0
2017-Mar-21 21:33N 67°17' E 014°24'1 1.1
2017-Mar-21 20:34N 67°17' E 014°21'1414.2
2017-Mar-21 19:33N 67°06' E 013°58'1514.7
2017-Mar-21 18:33N 66°57' E 013°29'1414.0
2017-Mar-21 17:33N 66°44' E 013°12'1414.1
2017-Mar-21 16:33N 66°31' E 012°57'1515.3
2017-Mar-21 15:33N 66°16' E 012°55'1515.0
2017-Mar-21 14:33N 66°03' E 012°37'1515.0
2017-Mar-21 13:34N 65°50' E 012°21'1515.1
2017-Mar-21 12:33N 65°35' E 012°08'1313.4
2017-Mar-21 11:33N 65°22' E 012°00'1413.8
2017-Mar-21 10:33N 65°09' E 011°50'1414.3
2017-Mar-21 09:34N 64°57' E 011°31'1414.0
2017-Mar-21 08:33N 64°48' E 011°07'1514.7
2017-Mar-21 07:33N 64°37' E 010°43'1414.5
2017-Mar-21 06:33N 64°25' E 010°26'1312.9
2017-Mar-21 05:33N 64°13' E 010°13'1514.5
2017-Mar-21 04:32N 64°03' E 009°49'1414.0
2017-Mar-21 03:33N 63°50' E 009°37'1 1.0
2017-Mar-21 02:33N 63°49' E 009°38'0 0.0
2017-Mar-21 01:33N 63°49' E 009°38'0 0.0
2017-Mar-21 00:33N 63°49' E 009°38'0 0.0
2017-Mar-20 23:33N 63°49' E 009°38'0 0.0
2017-Mar-20 22:33N 63°49' E 009°38'0 0.0
2017-Mar-20 21:33N 63°49' E 009°38'0 0.0
2017-Mar-20 20:33N 63°49' E 009°38'0 0.0
2017-Mar-20 19:33N 63°49' E 009°38'0 0.0
2017-Mar-20 18:33N 63°49' E 009°38'0 0.0
2017-Mar-20 17:33N 63°49' E 009°38'6 5.8
2017-Mar-20 16:33N 63°44' E 009°32'1414.2
2017-Mar-20 15:33N 63°32' E 009°14'1515.3
2017-Mar-20 14:33N 63°26' E 008°43'1515.4
2017-Mar-20 13:33N 63°18' E 008°14'1615.7
2017-Mar-20 12:34N 63°10' E 007°44'1515.2
2017-Mar-20 11:33N 63°03' E 007°15'1514.6
2017-Mar-20 10:33N 62°55' E 006°47'1515.3
2017-Mar-20 09:33N 62°42' E 006°28'1515.0
2017-Mar-20 08:33N 62°30' E 006°09'3 2.8
2017-Mar-20 07:33N 62°29' E 006°14'0 0.0
2017-Mar-20 06:33N 62°29' E 006°14'10 9.5
2017-Mar-20 05:33N 62°26' E 005°54'1312.9
2017-Mar-20 04:34N 62°18' E 005°31'1414.3
2017-Mar-20 03:33N 62°11' E 005°05'1414.1
2017-Mar-20 02:33N 61°57' E 005°09'9 8.9
2017-Mar-20 01:33N 61°48' E 005°07'1413.8
2017-Mar-20 00:33N 61°35' E 004°57'1313.5
2017-Mar-19 23:33N 61°22' E 004°49'1414.0
2017-Mar-19 22:34N 61°08' E 004°45'1514.8
2017-Mar-19 21:33N 60°53' E 004°46'1514.7
2017-Mar-19 20:33N 60°39' E 004°52'1615.6
2017-Mar-19 19:33N 60°25' E 005°05'7 7.4
2017-Mar-19 18:33N 60°23' E 005°19'0 0.0
2017-Mar-19 17:33N 60°23' E 005°19'0 0.0
2017-Mar-19 16:33N 60°23' E 005°19'4 4.2
2017-Mar-19 15:33N 60°23' E 005°11'1313.0
2017-Mar-19 14:33N 60°10' E 005°08'1414.4
2017-Mar-19 13:33N 60°06' E 004°40'26414.7
2017-Mar-18 19:33N 57°16' W 001°47'1211.8
2017-Mar-18 18:33N 57°09' W 002°05'0 0.1
2017-Mar-18 17:33N 57°09' W 002°05'0 0.0
2017-Mar-18 16:33N 57°09' W 002°05'1 0.7
2017-Mar-18 15:34N 57°08' W 002°04'10 9.6
2017-Mar-18 14:33N 56°60' W 001°56'15114.6
2017-Mar-18 04:14N 54°37' W 000°31'913.9
2017-Mar-18 03:34N 54°29' W 000°22'1414.2
2017-Mar-18 02:33N 54°17' W 000°09'1515.1
2017-Mar-18 01:33N 54°04' E 000°05'2215.1
2017-Mar-18 00:06N 53°44' E 000°21'815.2
2017-Mar-17 23:33N 53°36' E 000°20'1313.1
2017-Mar-17 22:33N 53°35' W 000°02'1 0.5
2017-Mar-17 19:32N 53°35' W 000°04'0 0.0
2017-Mar-17 18:31N 53°35' W 000°04'0 0.0
2017-Mar-17 17:27N 53°35' W 000°04'0 0.0
2017-Mar-17 16:33N 53°35' W 000°04'0 0.0
2017-Mar-17 15:20N 53°35' W 000°04'0 0.0
2017-Mar-17 14:26N 53°35' W 000°04'0 0.0
2017-Mar-17 13:19N 53°35' W 000°04'0 0.0
2017-Mar-17 12:33N 53°35' W 000°04'0 0.0
2017-Mar-17 07:13N 53°35' W 000°04'0 0.0
2017-Mar-17 06:24N 53°35' W 000°04'0 0.0
2017-Mar-17 05:33N 53°35' W 000°04'0 0.0
2017-Mar-17 04:26N 53°35' W 000°04'0 0.0
2017-Mar-17 03:31N 53°35' W 000°04'0 0.0
2017-Mar-17 02:25N 53°35' W 000°04'0 0.0
2017-Mar-17 01:33N 53°35' W 000°04'0 0.0
2017-Mar-17 00:33N 53°35' W 000°04'0 0.0
2017-Mar-16 23:29N 53°35' W 000°04'0 0.0
2017-Mar-16 22:31N 53°35' W 000°04'0 0.0
2017-Mar-16 19:30N 53°35' W 000°04'0 0.0
2017-Mar-16 18:20N 53°35' W 000°04'  
Track history (hours):
 
Tides and Currents Weather Stations Pressure Air Temp Water Temp Dewpoint Dewpoint Depression Visibility Wind Speed Wind Dir Waves Ship Positions

Polfoss

Last reported at 2017-Mar-26 17:29 UTC. Time now 2017-Mar-26 20:56 UTC.
Position N 69°03' E 033°04'.

Length 82 m; draft 5.2 m.

Type: Cargo ship. MMSI: 305081000.

Date/timePositionNaut miles runAvg speedWind from/ knotsBaromVisibWave heightAir tempDewpointWater temp
2017-Mar-26 17:29N 69°03' E 033°04'5 5.5
2017-Mar-26 16:32N 68°58' E 033°03'0 0.0
2017-Mar-26 15:31N 68°58' E 033°03'0 0.0
2017-Mar-26 14:31N 68°58' E 033°03'0 0.0
2017-Mar-26 13:33N 68°58' E 033°03'0 0.0
2017-Mar-26 12:32N 68°58' E 033°03'0 0.0
2017-Mar-26 11:33N 68°58' E 033°03'1 1.3
2017-Mar-26 10:33N 68°57' E 033°02'0 0.0
2017-Mar-26 09:33N 68°57' E 033°02'0 0.0
2017-Mar-26 08:32N 68°57' E 033°02'0 0.0
2017-Mar-26 07:31N 68°57' E 033°02'0 0.0
2017-Mar-26 06:31N 68°57' E 033°02'0 0.0
2017-Mar-26 05:33N 68°57' E 033°02'0 0.0
2017-Mar-26 04:33N 68°57' E 033°02'0 0.0
2017-Mar-26 03:32N 68°57' E 033°02'0 0.0
2017-Mar-26 02:31N 68°57' E 033°02'0 0.0
2017-Mar-26 01:31N 68°57' E 033°02'0 0.0
2017-Mar-26 00:33N 68°57' E 033°02'0 0.0
2017-Mar-25 23:33N 68°57' E 033°02'0 0.0
2017-Mar-25 22:32N 68°57' E 033°02'0 0.0
2017-Mar-25 21:31N 68°57' E 033°02'0 0.0
2017-Mar-25 20:31N 68°57' E 033°02'0 0.0
2017-Mar-25 19:33N 68°57' E 033°02'0 0.0
2017-Mar-25 18:33N 68°57' E 033°02'0 0.0
2017-Mar-25 17:32N 68°57' E 033°02'0 0.0
2017-Mar-25 16:31N 68°57' E 033°02'0 0.4
2017-Mar-25 15:31N 68°56' E 033°02'0 0.0
2017-Mar-25 14:33N 68°56' E 033°02'0 0.0
2017-Mar-25 13:33N 68°56' E 033°02'0 0.0
2017-Mar-25 12:32N 68°56' E 033°02'0 0.0
2017-Mar-25 11:31N 68°56' E 033°02'0 0.0
2017-Mar-25 10:31N 68°56' E 033°02'0 0.0
2017-Mar-25 09:33N 68°56' E 033°02'0 0.0
2017-Mar-25 08:33N 68°56' E 033°02'0 0.0
2017-Mar-25 07:32N 68°56' E 033°02'0 0.0
2017-Mar-25 06:31N 68°56' E 033°02'0 0.0
2017-Mar-25 05:31N 68°56' E 033°02'1 0.8
2017-Mar-25 04:33N 68°57' E 033°01'7 6.5
2017-Mar-25 03:33N 69°04' E 033°05'8111.6
2017-Mar-24 20:33N 70°20' E 031°46'1514.9
2017-Mar-24 19:33N 70°29' E 031°09'1414.2
2017-Mar-24 18:33N 70°37' E 030°35'1313.3
2017-Mar-24 17:33N 70°43' E 029°60'8 7.5
2017-Mar-24 16:33N 70°38' E 029°43'0 0.0
2017-Mar-24 15:33N 70°38' E 029°43'0 0.0
2017-Mar-24 14:33N 70°38' E 029°43'0 0.0
2017-Mar-24 13:33N 70°38' E 029°43'0 0.0
2017-Mar-24 12:32N 70°38' E 029°43'0 0.0
2017-Mar-24 11:33N 70°38' E 029°43'4 3.6
2017-Mar-24 10:33N 70°41' E 029°50'1414.0
2017-Mar-24 09:33N 70°51' E 029°23'1514.6
2017-Mar-24 08:33N 70°60' E 028°46'1414.6
2017-Mar-24 07:33N 71°08' E 028°09'1414.1
2017-Mar-24 06:33N 71°08' E 027°25'1413.9
2017-Mar-24 05:33N 71°05' E 026°43'1313.4
2017-Mar-24 04:34N 70°59' E 026°07'1312.8
2017-Mar-24 03:33N 70°57' E 025°28'1413.8
2017-Mar-24 02:33N 71°01' E 024°46'1211.7
2017-Mar-24 01:33N 70°56' E 024°13'1413.6
2017-Mar-24 00:33N 70°50' E 023°36'1110.7
2017-Mar-23 23:32N 70°39' E 023°32'3 2.7
2017-Mar-23 22:33N 70°38' E 023°39'2 1.9
2017-Mar-23 21:33N 70°38' E 023°34'1414.4
2017-Mar-23 20:33N 70°31' E 022°56'1514.8
2017-Mar-23 19:33N 70°25' E 022°15'1313.6
2017-Mar-23 18:33N 70°16' E 021°45'9 9.4
2017-Mar-23 17:33N 70°16' E 021°17'1414.2
2017-Mar-23 16:33N 70°04' E 020°54'2115.3
2017-Mar-23 15:11N 69°55' E 019°58'915.2
2017-Mar-23 14:33N 69°49' E 019°36'1414.1
2017-Mar-23 13:33N 69°42' E 019°02'2 2.5
2017-Mar-23 12:33N 69°40' E 018°58'2 1.9
2017-Mar-23 11:33N 69°38' E 018°57'0 0.0
2017-Mar-23 10:33N 69°38' E 018°57'0 0.0
2017-Mar-23 09:33N 69°38' E 018°57'0 0.0
2017-Mar-23 08:33N 69°38' E 018°57'5 4.6
2017-Mar-23 07:33N 69°34' E 018°48'1615.6
2017-Mar-23 06:33N 69°28' E 018°07'1414.3
2017-Mar-23 05:33N 69°14' E 017°58'0 0.4
2017-Mar-23 04:33N 69°14' E 017°58'3 2.7
2017-Mar-23 03:33N 69°16' E 017°58'1111.1
2017-Mar-23 02:33N 69°27' E 018°07'1414.1
2017-Mar-23 01:33N 69°39' E 017°43'9 8.9
2017-Mar-23 00:33N 69°31' E 017°29'1 0.7
2017-Mar-22 23:33N 69°31' E 017°31'1313.3
2017-Mar-22 22:33N 69°30' E 016°53'1514.5
2017-Mar-22 21:33N 69°18' E 016°29'1514.8
2017-Mar-22 20:33N 69°05' E 016°08'1313.4
2017-Mar-22 19:33N 68°58' E 015°37'1514.9
2017-Mar-22 18:33N 68°43' E 015°25'1 1.3
2017-Mar-22 17:33N 68°42' E 015°25'0 0.0
2017-Mar-22 16:33N 68°42' E 015°25'0 0.0
2017-Mar-22 15:32N 68°42' E 015°25'0 0.0
2017-Mar-22 14:33N 68°42' E 015°25'1 0.7
2017-Mar-22 13:32N 68°41' E 015°26'1414.1
2017-Mar-22 12:33N 68°31' E 015°01'1514.6
2017-Mar-22 11:33N 68°25' E 014°25'1514.6
2017-Mar-22 10:33N 68°11' E 014°10'1414.0
2017-Mar-22 09:33N 68°04' E 013°37'4 3.8
2017-Mar-22 08:33N 68°08' E 013°34'0 0.0
2017-Mar-22 07:33N 68°08' E 013°34'0 0.0
2017-Mar-22 06:33N 68°08' E 013°34'0 0.0
2017-Mar-22 05:32N 68°08' E 013°34'0 0.0
2017-Mar-22 04:33N 68°08' E 013°34'2 2.3
2017-Mar-22 03:33N 68°05' E 013°36'1312.8
2017-Mar-22 02:33N 67°54' E 013°49'1414.3
2017-Mar-22 01:33N 67°41' E 014°06'1515.2
2017-Mar-22 00:33N 67°28' E 014°25'1010.4
2017-Mar-21 23:34N 67°17' E 014°24'0 0.0
2017-Mar-21 22:34N 67°17' E 014°24'0 0.0
2017-Mar-21 21:33N 67°17' E 014°24'1 1.1
2017-Mar-21 20:34N 67°17' E 014°21'1414.2
2017-Mar-21 19:33N 67°06' E 013°58'1514.7
2017-Mar-21 18:33N 66°57' E 013°29'1414.0
2017-Mar-21 17:33N 66°44' E 013°12'1414.1
2017-Mar-21 16:33N 66°31' E 012°57'1515.3
2017-Mar-21 15:33N 66°16' E 012°55'1515.0
2017-Mar-21 14:33N 66°03' E 012°37'1515.0
2017-Mar-21 13:34N 65°50' E 012°21'1515.1
2017-Mar-21 12:33N 65°35' E 012°08'1313.4
2017-Mar-21 11:33N 65°22' E 012°00'1413.8
2017-Mar-21 10:33N 65°09' E 011°50'1414.3
2017-Mar-21 09:34N 64°57' E 011°31'1414.0
2017-Mar-21 08:33N 64°48' E 011°07'1514.7
2017-Mar-21 07:33N 64°37' E 010°43'1414.5
2017-Mar-21 06:33N 64°25' E 010°26'1312.9
2017-Mar-21 05:33N 64°13' E 010°13'1514.5
2017-Mar-21 04:32N 64°03' E 009°49'1414.0
2017-Mar-21 03:33N 63°50' E 009°37'1 1.0
2017-Mar-21 02:33N 63°49' E 009°38'0 0.0
2017-Mar-21 01:33N 63°49' E 009°38'0 0.0
2017-Mar-21 00:33N 63°49' E 009°38'0 0.0
2017-Mar-20 23:33N 63°49' E 009°38'0 0.0
2017-Mar-20 22:33N 63°49' E 009°38'0 0.0
2017-Mar-20 21:33N 63°49' E 009°38'0 0.0
2017-Mar-20 20:33N 63°49' E 009°38'0 0.0
2017-Mar-20 19:33N 63°49' E 009°38'0 0.0
2017-Mar-20 18:33N 63°49' E 009°38'0 0.0
2017-Mar-20 17:33N 63°49' E 009°38'6 5.8
2017-Mar-20 16:33N 63°44' E 009°32'1414.2
2017-Mar-20 15:33N 63°32' E 009°14'1515.3
2017-Mar-20 14:33N 63°26' E 008°43'1515.4
2017-Mar-20 13:33N 63°18' E 008°14'1615.7
2017-Mar-20 12:34N 63°10' E 007°44'1515.2
2017-Mar-20 11:33N 63°03' E 007°15'1514.6
2017-Mar-20 10:33N 62°55' E 006°47'1515.3
2017-Mar-20 09:33N 62°42' E 006°28'1515.0
2017-Mar-20 08:33N 62°30' E 006°09'3 2.8
2017-Mar-20 07:33N 62°29' E 006°14'0 0.0
2017-Mar-20 06:33N 62°29' E 006°14'10 9.5
2017-Mar-20 05:33N 62°26' E 005°54'1312.9
2017-Mar-20 04:34N 62°18' E 005°31'1414.3
2017-Mar-20 03:33N 62°11' E 005°05'1414.1
2017-Mar-20 02:33N 61°57' E 005°09'9 8.9
2017-Mar-20 01:33N 61°48' E 005°07'1413.8
2017-Mar-20 00:33N 61°35' E 004°57'1313.5
2017-Mar-19 23:33N 61°22' E 004°49'1414.0
2017-Mar-19 22:34N 61°08' E 004°45'1514.8
2017-Mar-19 21:33N 60°53' E 004°46'1514.7
2017-Mar-19 20:33N 60°39' E 004°52'1615.6
2017-Mar-19 19:33N 60°25' E 005°05'7 7.4
2017-Mar-19 18:33N 60°23' E 005°19'0 0.0
2017-Mar-19 17:33N 60°23' E 005°19'0 0.0
2017-Mar-19 16:33N 60°23' E 005°19'4 4.2
2017-Mar-19 15:33N 60°23' E 005°11'1313.0
2017-Mar-19 14:33N 60°10' E 005°08'1414.4
2017-Mar-19 13:33N 60°06' E 004°40'26414.7
2017-Mar-18 19:33N 57°16' W 001°47'1211.8
2017-Mar-18 18:33N 57°09' W 002°05'0 0.1
2017-Mar-18 17:33N 57°09' W 002°05'0 0.0
2017-Mar-18 16:33N 57°09' W 002°05'1 0.7
2017-Mar-18 15:34N 57°08' W 002°04'10 9.6
2017-Mar-18 14:33N 56°60' W 001°56'15114.6
2017-Mar-18 04:14N 54°37' W 000°31'913.9
2017-Mar-18 03:34N 54°29' W 000°22'1414.2
2017-Mar-18 02:33N 54°17' W 000°09'1515.1
2017-Mar-18 01:33N 54°04' E 000°05'2215.1
2017-Mar-18 00:06N 53°44' E 000°21'815.2
2017-Mar-17 23:33N 53°36' E 000°20'1313.1
2017-Mar-17 22:33N 53°35' W 000°02'1 0.5
2017-Mar-17 19:32N 53°35' W 000°04'0 0.0
2017-Mar-17 18:31N 53°35' W 000°04'0 0.0
2017-Mar-17 17:27N 53°35' W 000°04'0 0.0
2017-Mar-17 16:33N 53°35' W 000°04'0 0.0
2017-Mar-17 15:20N 53°35' W 000°04'0 0.0
2017-Mar-17 14:26N 53°35' W 000°04'0 0.0
2017-Mar-17 13:19N 53°35' W 000°04'0 0.0
2017-Mar-17 12:33N 53°35' W 000°04'0 0.0
2017-Mar-17 07:13N 53°35' W 000°04'0 0.0
2017-Mar-17 06:24N 53°35' W 000°04'0 0.0
2017-Mar-17 05:33N 53°35' W 000°04'0 0.0
2017-Mar-17 04:26N 53°35' W 000°04'0 0.0
2017-Mar-17 03:31N 53°35' W 000°04'0 0.0
2017-Mar-17 02:25N 53°35' W 000°04'0 0.0
2017-Mar-17 01:33N 53°35' W 000°04'0 0.0
2017-Mar-17 00:33N 53°35' W 000°04'0 0.0
2017-Mar-16 23:29N 53°35' W 000°04'0 0.0
2017-Mar-16 22:31N 53°35' W 000°04'0 0.0
2017-Mar-16 19:30N 53°35' W 000°04'0 0.0
2017-Mar-16 18:20N 53°35' W 000°04'  

Dump ship's entire track history